West Point, Middle Peninsula Regional Airport (KFYJ)

NameMiddle Peninsula Regional Airport
CityWest Point
CountryUnited States
ICAOKFYJ
IATA
Altitude6 m
CoordinatesGoogle Map
Live Air TrafficLiveATC.net
METARKFYJ 172055Z AUTO 33004KT 10SM CLR 04/M10 A3069 RMK AO1 T00361096
2020-01-17 20:55:00 Wind: Northwest (330°) 2.06 m/s - Visibility: 16093.4 m - Temperature: 4 °C - Dew point: -10 °C - Humidity: 35.6% - Pressure: 1039.28 hPa

Sorry, no flights used the airport in this database.